Time;durP1;ratioP1;P1;durP2;ratioP2;P2;SDS_P1;SDS_P2;PMS_P1;PMS_P2;Temp;Humidity;BMP_temperature;BMP_pressure;BME280_temperature;BME280_humidity;BME280_pressure;Samples;Min_cycle;Max_cycle;Signal;HPM_P1;HPM_P2
2021/06/24 00:02:23;;;;;;;5.00;1.83;;;;;;;19.76;56.18;98628.00;5029338;28;20171;-62
2021/06/24 00:04:49;;;;;;;5.15;1.80;;;;;;;19.70;55.68;98614.81;5030650;28;20099;-64
2021/06/24 00:07:14;;;;;;;4.70;1.75;;;;;;;19.74;55.97;98627.41;5007249;28;20033;-61
2021/06/24 00:09:40;;;;;;;5.85;1.83;;;;;;;19.73;56.50;98609.97;5031533;28;20037;-64
2021/06/24 00:12:06;;;;;;;5.15;1.85;;;;;;;19.53;56.15;98593.28;5012786;28;20788;-63
2021/06/24 00:14:31;;;;;;;5.22;1.73;;;;;;;19.71;55.85;98611.97;5015253;28;20132;-62
2021/06/24 00:16:56;;;;;;;5.20;1.80;;;;;;;19.78;55.11;98619.91;5019081;28;20025;-63
2021/06/24 00:19:22;;;;;;;4.38;1.80;;;;;;;19.73;56.17;98612.59;5019733;28;20549;-62
2021/06/24 00:21:47;;;;;;;5.20;1.90;;;;;;;19.80;55.31;98617.06;5029841;28;20033;-63
2021/06/24 00:24:13;;;;;;;8.38;2.03;;;;;;;19.74;56.09;98610.78;5018707;28;20029;-62
2021/06/24 00:26:38;;;;;;;5.30;1.88;;;;;;;19.45;55.22;98569.78;5015327;28;20025;-62
2021/06/24 00:29:03;;;;;;;7.10;2.20;;;;;;;19.70;55.61;98609.53;5036745;28;20025;-64
2021/06/24 00:31:29;;;;;;;5.50;2.10;;;;;;;19.64;55.58;98597.16;5035279;28;20027;-64
2021/06/24 00:33:54;;;;;;;6.47;2.00;;;;;;;19.50;56.77;98570.78;5022236;28;20483;-63
2021/06/24 00:36:20;;;;;;;5.25;1.85;;;;;;;19.70;56.54;98610.34;5014807;28;20117;-64
2021/06/24 00:38:45;;;;;;;5.30;2.00;;;;;;;19.63;57.36;98617.44;5014880;28;20037;-64
2021/06/24 00:41:11;;;;;;;4.25;1.63;;;;;;;19.25;57.29;98553.94;5020530;28;20101;-63
2021/06/24 00:43:37;;;;;;;6.45;3.38;;;;;;;19.54;56.96;98594.91;5003655;28;20052;-62
2021/06/24 00:46:02;;;;;;;4.82;2.03;;;;;;;19.57;57.20;98605.06;5016688;28;20402;-63
2021/06/24 00:48:28;;;;;;;5.82;1.88;;;;;;;19.53;59.85;98603.84;5015848;28;20512;-63
2021/06/24 00:50:53;;;;;;;5.40;1.90;;;;;;;19.23;58.71;98556.78;5019201;28;20484;-62
2021/06/24 00:53:18;;;;;;;5.30;2.03;;;;;;;19.45;58.97;98596.13;5036324;28;20034;-63
2021/06/24 00:55:47;;;;;;;4.57;1.85;;;;;;;19.34;58.70;98584.38;5031036;28;20026;-61
2021/06/24 00:58:22;;;;;;;4.63;1.80;;;;;;;19.40;58.61;98586.19;5029747;28;20041;-61
2021/06/24 01:00:53;;;;;;;4.35;1.80;;;;;;;19.37;58.90;98578.69;5017621;28;20026;-62
2021/06/24 01:03:19;;;;;;;8.23;2.28;;;;;;;19.31;59.87;98576.84;5018887;28;20506;-64
2021/06/24 01:05:45;;;;;;;4.57;2.05;;;;;;;19.23;60.79;98583.13;5016705;28;20026;-64
2021/06/24 01:08:14;;;;;;;7.28;2.10;;;;;;;19.22;60.89;98568.34;5021735;28;20128;-62
2021/06/24 01:10:39;;;;;;;7.00;2.20;;;;;;;19.19;61.59;98566.91;5014184;28;20022;-63
2021/06/24 01:13:05;;;;;;;7.55;1.80;;;;;;;19.18;61.92;98561.84;5019743;28;20395;-64
2021/06/24 01:15:31;;;;;;;5.97;2.10;;;;;;;18.94;62.16;98529.78;5033502;28;20034;-63
2021/06/24 01:17:58;;;;;;;5.75;2.20;;;;;;;19.10;61.43;98565.50;5039490;28;20503;-63
2021/06/24 01:20:26;;;;;;;5.43;1.80;;;;;;;19.10;61.51;98564.69;5033732;28;20151;-63
2021/06/24 01:22:52;;;;;;;5.60;2.10;;;;;;;19.06;61.47;98563.47;5001184;28;20539;-63
2021/06/24 01:25:18;;;;;;;5.20;1.80;;;;;;;19.05;61.30;98557.38;5025846;28;20040;-63
2021/06/24 01:27:43;;;;;;;5.93;1.90;;;;;;;18.99;61.40;98555.53;5022799;28;20045;-61
2021/06/24 01:30:09;;;;;;;5.10;2.15;;;;;;;19.08;60.96;98566.72;5021267;28;20026;-63
2021/06/24 01:32:35;;;;;;;5.18;2.30;;;;;;;19.05;62.06;98554.72;5023505;28;20687;-63
2021/06/24 01:35:01;;;;;;;6.03;2.33;;;;;;;18.96;62.45;98562.00;5025398;28;20023;-62
2021/06/24 01:37:26;;;;;;;4.95;2.20;;;;;;;18.96;62.69;98555.94;5013807;28;20437;-64
2021/06/24 01:39:51;;;;;;;5.63;2.25;;;;;;;18.96;63.32;98562.00;5036827;28;20408;-63
2021/06/24 01:43:04;;;;;;;6.63;2.20;;;;;;;18.93;62.79;98570.34;5035131;28;20033;-63
2021/06/24 01:45:29;;;;;;;5.00;2.17;;;;;;;18.93;62.45;98557.16;5019902;28;20041;-63
2021/06/24 01:47:55;;;;;;;6.28;2.20;;;;;;;18.95;62.63;98563.03;5018723;28;20025;-63
2021/06/24 01:50:21;;;;;;;5.38;2.20;;;;;;;18.98;61.83;98553.91;5021808;28;20116;-64
2021/06/24 01:52:48;;;;;;;4.38;2.00;;;;;;;18.90;62.44;98548.84;5033549;28;20092;-63
2021/06/24 01:55:15;;;;;;;7.10;2.15;;;;;;;18.88;62.59;98551.66;5023889;28;20511;-62
2021/06/24 01:57:40;;;;;;;5.90;2.17;;;;;;;18.71;62.80;98524.03;5038807;28;20458;-64
2021/06/24 02:00:13;;;;;;;5.57;2.20;;;;;;;18.89;62.88;98545.41;5040039;28;20128;-63
2021/06/24 02:02:41;;;;;;;5.18;2.20;;;;;;;18.76;63.14;98550.59;5012151;28;20037;-63
2021/06/24 02:05:07;;;;;;;6.20;2.10;;;;;;;18.80;63.49;98543.91;5028273;28;20507;-62
2021/06/24 02:07:33;;;;;;;4.45;2.10;;;;;;;18.76;63.58;98532.16;5020176;28;20033;-63
2021/06/24 02:09:58;;;;;;;5.70;2.40;;;;;;;18.52;63.65;98494.03;5018674;28;20034;-63
2021/06/24 02:12:24;;;;;;;7.38;2.30;;;;;;;18.86;64.04;98537.09;5036062;28;20037;-63
2021/06/24 02:14:49;;;;;;;4.85;2.10;;;;;;;18.81;64.25;98546.38;5036512;28;20045;-64
2021/06/24 02:17:15;;;;;;;5.60;2.00;;;;;;;18.73;64.27;98527.31;5032417;28;20034;-63
2021/06/24 02:19:40;;;;;;;5.45;2.22;;;;;;;18.67;64.52;98520.19;5017053;28;20546;-64
2021/06/24 02:22:06;;;;;;;5.50;2.30;;;;;;;18.71;64.75;98540.66;5023333;28;20534;-64
2021/06/24 02:24:31;;;;;;;6.95;2.33;;;;;;;18.70;64.47;98531.13;5020746;28;20299;-63
2021/06/24 02:26:56;;;;;;;7.22;2.28;;;;;;;18.72;64.51;98542.28;5034456;28;20086;-63
2021/06/24 02:29:22;;;;;;;4.68;2.20;;;;;;;18.76;64.33;98538.22;5021351;28;20036;-62
2021/06/24 02:31:47;;;;;;;5.50;2.20;;;;;;;18.66;64.79;98534.38;5021403;28;20036;-62
2021/06/24 02:34:13;;;;;;;5.70;2.22;;;;;;;18.68;64.79;98535.78;5023243;28;20037;-63
2021/06/24 02:36:39;;;;;;;6.20;2.10;;;;;;;18.72;64.58;98549.38;5035920;28;20022;-63
2021/06/24 02:39:04;;;;;;;5.93;1.95;;;;;;;18.75;64.22;98541.88;5022077;28;20025;-63
2021/06/24 02:41:33;;;;;;;5.63;2.30;;;;;;;18.73;64.64;98543.91;5022562;28;20041;-64
2021/06/24 02:43:59;;;;;;;4.93;2.25;;;;;;;18.68;65.00;98538.44;5012274;28;20018;-63
2021/06/24 02:46:24;;;;;;;5.50;2.20;;;;;;;18.73;64.54;98537.84;5017799;28;20017;-63
2021/06/24 02:48:49;;;;;;;5.20;2.08;;;;;;;18.43;65.16;98502.09;5018797;28;20040;-63
2021/06/24 02:51:15;;;;;;;5.25;2.30;;;;;;;18.64;65.35;98547.75;5025255;28;20494;-63
2021/06/24 02:53:40;;;;;;;6.57;2.50;;;;;;;18.53;65.84;98533.31;5032842;28;20419;-63
2021/06/24 02:56:06;;;;;;;4.75;2.05;;;;;;;18.18;65.58;98486.03;5016448;28;20065;-64
2021/06/24 02:58:31;;;;;;;4.80;2.20;;;;;;;18.52;65.45;98539.59;5019606;28;20041;-63
2021/06/24 03:00:56;;;;;;;6.32;2.30;;;;;;;18.47;66.15;98535.94;5020832;28;20033;-63
2021/06/24 03:03:22;;;;;;;6.50;2.42;;;;;;;18.20;66.04;98496.38;5037077;28;20455;-62
2021/06/24 03:05:47;;;;;;;6.57;2.33;;;;;;;18.28;66.26;98495.38;5021839;28;20087;-62
2021/06/24 03:08:13;;;;;;;4.85;2.50;;;;;;;18.37;66.41;98531.03;5021689;28;20471;-62
2021/06/24 03:10:38;;;;;;;5.15;2.22;;;;;;;18.50;66.68;98536.34;5021773;28;20025;-63
2021/06/24 03:13:03;;;;;;;5.60;2.28;;;;;;;18.37;66.06;98515.25;5018271;28;20021;-63
2021/06/24 03:15:32;;;;;;;5.55;2.17;;;;;;;18.35;65.75;98501.47;5021082;28;20037;-63
2021/06/24 03:17:57;;;;;;;5.90;2.38;;;;;;;18.50;65.22;98543.44;5021390;28;20172;-63
2021/06/24 03:20:27;;;;;;;6.85;2.50;;;;;;;18.55;64.66;98535.75;5037485;28;20033;-62
2021/06/24 03:22:57;;;;;;;5.63;2.42;;;;;;;18.28;64.13;98490.13;5018989;28;20403;-63
2021/06/24 03:25:22;;;;;;;6.53;2.35;;;;;;;18.46;65.24;98527.22;5019574;28;20116;-63
2021/06/24 03:27:50;;;;;;;4.93;2.17;;;;;;;18.18;65.41;98496.56;5019510;28;20025;-63
2021/06/24 03:30:16;;;;;;;7.63;2.40;;;;;;;18.48;65.51;98535.72;5008917;28;20029;-62
2021/06/24 03:32:41;;;;;;;5.53;2.30;;;;;;;18.50;66.26;98546.06;5025990;28;20455;-63
2021/06/24 03:35:07;;;;;;;6.00;2.55;;;;;;;18.41;66.91;98538.31;5018717;28;20421;-63
2021/06/24 03:37:33;;;;;;;5.38;2.63;;;;;;;18.49;66.33;98537.38;5016932;28;20776;-61
2021/06/24 03:39:58;;;;;;;5.47;2.30;;;;;;;18.37;67.06;98534.47;5032145;28;20166;-64
2021/06/24 03:42:24;;;;;;;6.82;2.45;;;;;;;18.40;67.31;98544.63;5021696;28;20028;-62
2021/06/24 03:44:49;;;;;;;5.72;2.60;;;;;;;18.37;66.91;98549.47;5020907;28;20025;-63
2021/06/24 03:47:15;;;;;;;5.13;2.33;;;;;;;18.30;67.00;98538.09;5020575;28;20024;-63
2021/06/24 03:49:40;;;;;;;5.90;2.40;;;;;;;18.35;66.48;98547.03;5034087;28;20037;-63
2021/06/24 03:52:06;;;;;;;6.55;2.63;;;;;;;18.49;66.54;98554.97;5021234;28;20061;-64
2021/06/24 03:54:31;;;;;;;7.18;2.80;;;;;;;18.50;65.81;98546.06;5014461;28;20025;-63
2021/06/24 03:56:57;;;;;;;6.95;2.50;;;;;;;18.57;64.65;98549.53;5028495;28;20018;-63
2021/06/24 03:59:23;;;;;;;6.90;2.72;;;;;;;18.52;65.72;98544.03;5010942;28;20029;-63
2021/06/24 04:01:48;;;;;;;6.25;2.28;;;;;;;18.41;66.15;98540.97;5015212;28;20391;-63
2021/06/24 04:04:14;;;;;;;5.45;2.42;;;;;;;18.41;66.74;98538.31;5012290;28;20168;-63
2021/06/24 04:06:39;;;;;;;4.82;2.10;;;;;;;18.35;67.27;98548.84;5012373;28;20024;-63
2021/06/24 04:09:09;;;;;;;10.60;3.03;;;;;;;18.36;67.19;98546.03;5020212;28;20475;-63
2021/06/24 04:11:34;;;;;;;6.47;2.22;;;;;;;18.36;67.27;98545.19;5019719;28;20369;-64
2021/06/24 04:14:00;;;;;;;5.93;2.40;;;;;;;18.50;67.00;98544.25;5019424;28;20490;-64
2021/06/24 04:16:25;;;;;;;6.00;2.20;;;;;;;18.06;66.73;98498.91;5013833;28;20042;-62
2021/06/24 04:18:51;;;;;;;5.60;2.30;;;;;;;18.30;67.53;98543.34;5032655;28;20045;-63
2021/06/24 04:21:16;;;;;;;6.30;2.30;;;;;;;18.25;67.56;98541.28;5022128;28;20029;-62
2021/06/24 04:23:42;;;;;;;5.93;2.55;;;;;;;18.05;67.67;98505.19;5020956;28;20037;-62
2021/06/24 04:26:07;;;;;;;7.32;2.50;;;;;;;18.32;68.24;98536.06;5021418;28;20455;-62
2021/06/24 04:28:33;;;;;;;7.45;2.78;;;;;;;18.38;67.67;98535.28;5034664;28;20112;-64
2021/06/24 04:30:58;;;;;;;5.88;2.55;;;;;;;18.28;67.58;98540.91;5019707;28;20369;-63
2021/06/24 04:33:23;;;;;;;5.53;2.38;;;;;;;18.04;68.50;98506.19;5012326;28;20188;-62
2021/06/24 04:35:49;;;;;;;5.53;2.40;;;;;;;17.98;68.98;98508.78;5013676;28;20030;-63
2021/06/24 04:38:15;;;;;;;5.68;2.42;;;;;;;18.00;68.58;98501.53;5011349;28;20036;-61
2021/06/24 04:40:40;;;;;;;6.22;2.50;;;;;;;18.01;68.71;98514.47;5027641;28;20109;-63
2021/06/24 04:43:06;;;;;;;6.90;2.75;;;;;;;17.95;68.35;98506.56;5016274;28;20039;-63
2021/06/24 04:45:31;;;;;;;5.82;2.75;;;;;;;17.88;69.04;98509.16;5017707;28;20061;-64
2021/06/24 04:47:57;;;;;;;7.30;2.92;;;;;;;18.12;68.41;98547.31;5019207;28;20083;-63
2021/06/24 04:50:22;;;;;;;6.68;2.55;;;;;;;18.09;68.57;98536.38;5016529;28;20033;-63
2021/06/24 04:52:47;;;;;;;9.52;2.83;;;;;;;18.25;68.22;98555.28;5019153;28;20034;-63
2021/06/24 04:55:13;;;;;;;8.07;2.65;;;;;;;18.33;67.94;98551.69;5023954;28;20025;-63
2021/06/24 04:57:40;;;;;;;8.68;2.60;;;;;;;18.08;67.67;98511.09;5019734;28;20067;-62
2021/06/24 05:00:07;;;;;;;4.72;2.47;;;;;;;18.37;67.50;98573.97;5019141;28;20050;-63
2021/06/24 05:02:32;;;;;;;5.82;2.60;;;;;;;18.35;68.18;98573.34;5039140;28;20065;-62
2021/06/24 05:04:58;;;;;;;6.50;2.80;;;;;;;18.03;68.25;98525.63;5038448;28;20052;-62
2021/06/24 05:07:23;;;;;;;5.40;2.20;;;;;;;18.39;68.63;98564.03;5019738;28;20025;-63
2021/06/24 05:09:49;;;;;;;7.47;2.45;;;;;;;18.49;67.97;98550.53;5016607;28;20017;-63
2021/06/24 05:12:15;;;;;;;7.07;2.72;;;;;;;18.43;68.22;98556.56;5024583;28;20030;-62
2021/06/24 05:14:41;;;;;;;5.68;2.50;;;;;;;18.53;67.25;98572.00;5018559;28;20041;-63
2021/06/24 05:17:07;;;;;;;7.03;2.80;;;;;;;18.32;66.83;98523.72;5021938;28;20454;-63
2021/06/24 05:19:34;;;;;;;7.68;2.80;;;;;;;18.59;66.44;98560.69;5017692;28;20132;-62
2021/06/24 05:21:59;;;;;;;6.45;2.58;;;;;;;18.63;65.68;98560.06;5024273;28;20029;-63
2021/06/24 05:24:25;;;;;;;6.13;2.50;;;;;;;18.58;66.18;98556.41;5021953;28;20041;-63
2021/06/24 05:26:50;;;;;;;8.15;2.60;;;;;;;18.52;65.87;98551.94;5022982;28;20086;-63
2021/06/24 05:29:15;;;;;;;6.47;2.70;;;;;;;18.63;65.76;98557.44;5037487;28;20037;-62
2021/06/24 05:31:41;;;;;;;5.00;2.45;;;;;;;18.56;66.47;98551.38;5022335;28;20114;-63
2021/06/24 05:34:06;;;;;;;6.55;2.67;;;;;;;18.68;66.02;98554.22;5024740;28;20076;-62
2021/06/24 05:36:33;;;;;;;6.55;2.53;;;;;;;18.72;65.77;98547.53;5018596;28;20384;-62
2021/06/24 05:38:58;;;;;;;8.93;2.50;;;;;;;18.78;64.69;98556.47;5022478;28;20029;-63
2021/06/24 05:41:24;;;;;;;6.00;2.58;;;;;;;18.58;64.63;98519.53;5034272;28;20032;-62
2021/06/24 05:43:49;;;;;;;4.57;2.30;;;;;;;18.91;63.91;98567.09;5014882;28;20033;-64
2021/06/24 05:46:15;;;;;;;7.32;2.63;;;;;;;18.89;64.34;98560.38;5018272;28;20079;-63
2021/06/24 05:48:40;;;;;;;5.63;2.22;;;;;;;18.90;63.15;98564.66;5029078;28;20576;-64
2021/06/24 05:51:06;;;;;;;5.45;2.75;;;;;;;18.85;63.69;98567.88;5034175;28;20061;-63
2021/06/24 05:53:31;;;;;;;7.10;2.45;;;;;;;18.70;63.68;98538.22;5012600;28;20508;-64
2021/06/24 05:55:58;;;;;;;6.05;2.22;;;;;;;18.94;63.02;98571.94;5018789;28;20681;-64
2021/06/24 05:58:30;;;;;;;7.85;2.47;;;;;;;18.98;62.82;98578.44;5034902;28;20708;-63
2021/06/24 06:00:57;;;;;;;5.75;2.63;;;;;;;18.78;62.33;98549.41;5033852;28;20133;-64
2021/06/24 06:03:24;;;;;;;7.20;2.40;;;;;;;18.97;62.97;98582.09;5000632;28;20597;-64
2021/06/24 06:05:50;;;;;;;5.30;2.40;;;;;;;18.97;61.88;98582.09;5023510;28;20052;-63
2021/06/24 06:08:16;;;;;;;4.82;2.22;;;;;;;18.72;62.34;98546.75;5015825;28;20074;-63
2021/06/24 06:10:41;;;;;;;5.72;2.30;;;;;;;18.98;63.41;98575.81;5021049;28;20107;-64
2021/06/24 06:13:08;;;;;;;5.13;2.35;;;;;;;18.99;63.98;98577.44;5018541;28;20032;-62
2021/06/24 06:15:35;;;;;;;5.32;2.40;;;;;;;18.61;62.94;98527.06;5021308;28;20034;-63
2021/06/24 06:18:01;;;;;;;6.82;2.42;;;;;;;18.65;63.78;98544.06;5022083;28;20595;-64
2021/06/24 06:20:28;;;;;;;5.45;2.50;;;;;;;18.88;63.94;98571.94;5036078;28;20037;-63
2021/06/24 06:22:53;;;;;;;4.90;2.10;;;;;;;18.86;64.71;98560.81;5019318;28;21442;-64
2021/06/24 06:25:19;;;;;;;6.78;2.67;;;;;;;18.87;64.68;98562.41;5031121;28;20484;-63
2021/06/24 06:27:44;;;;;;;5.03;2.17;;;;;;;18.84;64.25;98550.44;5038246;28;20527;-64
2021/06/24 06:30:10;;;;;;;5.53;2.33;;;;;;;18.89;65.18;98563.00;5022233;28;20037;-64
2021/06/24 06:32:35;;;;;;;4.47;2.20;;;;;;;18.76;64.50;98546.13;5019753;28;20125;-63
2021/06/24 06:35:01;;;;;;;5.93;2.50;;;;;;;18.91;64.28;98569.72;5036850;28;20034;-63
2021/06/24 06:37:26;;;;;;;5.65;2.47;;;;;;;19.01;63.72;98577.22;5037674;28;20561;-63
2021/06/24 06:39:51;;;;;;;5.22;2.08;;;;;;;18.94;64.16;98571.94;5036290;28;20038;-63
2021/06/24 06:42:17;;;;;;;6.10;2.50;;;;;;;18.93;64.04;98574.75;5022905;28;20392;-63
2021/06/24 06:44:42;;;;;;;4.53;2.33;;;;;;;19.02;64.51;98582.31;5020462;28;20029;-63
2021/06/24 06:47:08;;;;;;;9.30;2.60;;;;;;;18.94;64.81;98579.84;5037426;28;20082;-63
2021/06/24 06:49:33;;;;;;;4.63;2.50;;;;;;;19.00;64.64;98578.22;5019072;28;20436;-63
2021/06/24 06:51:58;;;;;;;6.55;2.40;;;;;;;18.95;63.71;98551.69;5017452;28;20029;-64
2021/06/24 06:54:24;;;;;;;8.60;2.50;;;;;;;18.93;63.21;98548.41;5015691;28;20034;-62
2021/06/24 06:56:49;;;;;;;8.23;2.60;;;;;;;19.03;63.32;98567.28;5010733;28;20451;-63
2021/06/24 06:59:15;;;;;;;5.88;2.53;;;;;;;19.09;63.19;98578.84;5009884;28;20033;-63
2021/06/24 07:01:41;;;;;;;6.32;2.50;;;;;;;19.08;63.26;98585.97;5017971;28;20022;-64
2021/06/24 07:04:06;;;;;;;6.78;2.60;;;;;;;18.89;63.58;98548.03;5037973;28;20833;-63
2021/06/24 07:06:32;;;;;;;9.50;2.63;;;;;;;19.19;63.79;98579.28;5026098;28;20038;-63
2021/06/24 07:08:58;;;;;;;6.50;2.47;;;;;;;19.14;64.02;98586.97;5013556;28;20033;-63
2021/06/24 07:11:24;;;;;;;5.93;2.55;;;;;;;19.06;64.43;98587.19;5017767;28;20067;-63
2021/06/24 07:13:50;;;;;;;8.18;3.00;;;;;;;19.12;64.37;98584.53;5032390;28;20037;-63
2021/06/24 07:16:17;;;;;;;13.27;3.13;;;;;;;19.08;64.65;98585.16;5014647;28;20031;-64
2021/06/24 07:18:42;;;;;;;23.27;4.40;;;;;;;19.24;64.35;98592.69;5016680;28;20435;-63
2021/06/24 07:21:07;;;;;;;11.77;3.25;;;;;;;19.12;63.84;98554.75;5031281;28;20026;-63
2021/06/24 07:23:33;;;;;;;9.57;2.78;;;;;;;19.30;64.22;98594.50;5008797;28;20468;-62
2021/06/24 07:25:58;;;;;;;16.35;3.47;;;;;;;19.38;63.58;98585.59;5020534;28;20029;-62
2021/06/24 07:28:24;;;;;;;16.40;3.50;;;;;;;19.40;63.82;98587.03;5010627;28;20079;-64
2021/06/24 07:30:50;;;;;;;15.25;3.05;;;;;;;19.49;63.69;98584.97;5023852;28;20021;-64
2021/06/24 07:33:18;;;;;;;14.80;2.97;;;;;;;19.39;63.70;98589.84;5016764;28;20037;-64
2021/06/24 07:35:44;;;;;;;7.32;2.60;;;;;;;19.43;63.14;98585.78;5020542;28;20059;-63
2021/06/24 07:38:10;;;;;;;6.05;2.33;;;;;;;19.49;63.12;98584.16;5015094;28;20400;-63
2021/06/24 07:40:36;;;;;;;8.23;2.60;;;;;;;19.58;62.45;98589.03;5029987;28;20274;-64
2021/06/24 07:43:01;;;;;;;5.65;2.45;;;;;;;20.02;60.70;98551.66;5020097;28;20478;-64
2021/06/24 07:45:27;;;;;;;6.65;2.50;;;;;;;20.95;57.74;98575.06;5022385;28;20179;-64
2021/06/24 07:47:53;;;;;;;6.28;2.30;;;;;;;21.31;56.87;98571.75;5018525;28;20037;-64
2021/06/24 07:50:18;;;;;;;7.03;2.35;;;;;;;21.73;55.49;98576.53;5016779;28;20040;-64
2021/06/24 07:52:44;;;;;;;6.97;2.60;;;;;;;22.03;54.06;98581.13;5013416;28;20121;-64
2021/06/24 07:55:10;;;;;;;8.00;2.22;;;;;;;22.32;53.96;98579.63;5015267;28;20061;-63
2021/06/24 07:57:36;;;;;;;7.63;2.10;;;;;;;22.46;52.60;98553.78;5026942;28;20017;-62
2021/06/24 08:00:04;;;;;;;5.82;2.33;;;;;;;22.57;52.12;98576.06;5008474;28;20547;-63
2021/06/24 08:02:30;;;;;;;5.55;2.10;;;;;;;22.85;51.40;98564.88;5016959;28;20025;-62
2021/06/24 08:04:55;;;;;;;7.00;2.38;;;;;;;23.13;51.06;98572.28;5019665;28;20083;-63
2021/06/24 08:07:20;;;;;;;6.28;2.38;;;;;;;23.16;50.70;98534.69;5012608;28;20041;-63
2021/06/24 08:09:46;;;;;;;6.57;2.15;;;;;;;23.44;49.81;98557.09;5013250;28;20096;-63
2021/06/24 08:12:11;;;;;;;5.28;2.20;;;;;;;23.58;50.02;98563.81;5033476;28;20030;-62
2021/06/24 08:14:37;;;;;;;4.72;2.20;;;;;;;23.79;49.75;98533.22;5029268;28;20032;-63
2021/06/24 08:17:02;;;;;;;6.00;2.38;;;;;;;23.36;50.03;98528.25;5008203;28;20750;-63
2021/06/24 08:19:28;;;;;;;6.95;2.38;;;;;;;23.36;51.55;98562.72;5018116;28;20258;-62
2021/06/24 08:21:58;;;;;;;5.60;2.38;;;;;;;23.66;50.05;98557.34;5031475;28;20026;-63
2021/06/24 08:24:24;;;;;;;6.07;2.40;;;;;;;24.15;49.26;98563.22;5019768;28;20112;-64
2021/06/24 08:26:49;;;;;;;5.80;2.22;;;;;;;24.17;49.38;98563.78;5034545;28;20104;-62
2021/06/24 08:29:15;;;;;;;5.63;2.30;;;;;;;24.07;49.32;98555.59;5019761;28;20053;-62
2021/06/24 08:31:41;;;;;;;7.10;2.13;;;;;;;24.32;49.17;98555.31;5014710;28;20044;-64
2021/06/24 08:34:07;;;;;;;6.45;2.67;;;;;;;24.49;49.60;98560.69;5017693;28;20732;-63
2021/06/24 08:36:32;;;;;;;7.38;2.60;;;;;;;24.63;48.60;98557.78;5020780;28;20151;-64
2021/06/24 08:38:58;;;;;;;7.28;2.33;;;;;;;24.53;48.48;98507.88;5028735;28;20040;-64
2021/06/24 08:41:26;;;;;;;6.35;1.98;;;;;;;25.30;45.68;98567.75;5014470;28;20133;-63
2021/06/24 08:43:53;;;;;;;5.47;2.20;;;;;;;25.45;45.49;98535.25;5020887;28;20029;-61
2021/06/24 08:46:20;;;;;;;6.43;2.40;;;;;;;25.47;45.82;98557.91;5013745;28;20052;-64
2021/06/24 08:48:46;;;;;;;7.00;2.30;;;;;;;25.49;47.68;98560.31;5035814;28;20045;-64
2021/06/24 08:51:12;;;;;;;6.38;2.50;;;;;;;25.17;47.56;98528.91;5020717;28;20791;-63
2021/06/24 08:53:39;;;;;;;4.60;2.25;;;;;;;25.39;46.95;98558.31;5018852;28;20195;-63
2021/06/24 08:56:06;;;;;;;6.00;1.90;;;;;;;25.74;46.15;98559.06;5035993;28;20028;-64
2021/06/24 08:58:36;;;;;;;6.82;2.25;;;;;;;25.83;44.93;98530.97;5016376;28;20586;-63
2021/06/24 09:01:01;;;;;;;;;;;;;;;26.14;44.80;98558.03;5021741;28;20148;-61
2021/06/24 09:03:31;;;;;;;6.82;2.40;;;;;;;26.71;44.46;98549.66;5014768;28;20012;-63
2021/06/24 09:06:07;;;;;;;5.18;2.38;;;;;;;26.44;42.50;98522.94;5015301;28;20125;-64
2021/06/24 09:08:35;;;;;;;6.63;2.10;;;;;;;26.88;43.34;98528.22;5034721;28;20065;-63
2021/06/24 09:11:17;;;;;;;6.70;2.00;;;;;;;26.92;41.38;98523.97;5014799;28;20169;-64
2021/06/24 09:13:45;;;;;;;6.53;2.10;;;;;;;27.16;39.58;98550.31;5017109;28;20144;-64
2021/06/24 09:16:25;;;;;;;5.15;2.13;;;;;;;27.00;38.91;98538.72;5019435;28;20026;-63
2021/06/24 09:18:50;;;;;;;4.75;2.33;;;;;;;27.03;39.60;98524.88;5030451;28;20052;-63
2021/06/24 09:21:21;;;;;;;5.88;2.15;;;;;;;26.99;42.19;98532.56;5017497;28;20120;-64
2021/06/24 09:23:49;;;;;;;6.25;2.17;;;;;;;27.37;40.64;98544.13;5018618;28;20026;-63
2021/06/24 09:26:15;;;;;;;5.05;2.28;;;;;;;27.34;41.42;98539.28;5014440;28;20022;-63
2021/06/24 09:28:45;;;;;;;5.80;2.30;;;;;;;28.44;38.19;98536.91;5012417;28;20018;-64
2021/06/24 09:31:21;;;;;;;6.68;2.40;;;;;;;29.18;37.50;98532.25;5018052;28;20384;-63
2021/06/24 09:33:46;;;;;;;6.75;2.17;;;;;;;29.42;38.62;98535.19;5016412;28;20037;-63
2021/06/24 09:36:11;;;;;;;6.38;2.30;;;;;;;28.50;39.65;98535.88;5032116;28;20041;-62
2021/06/24 09:38:42;;;;;;;7.07;2.40;;;;;;;28.62;37.85;98525.75;5019053;28;20029;-63
2021/06/24 09:41:15;;;;;;;6.10;2.40;;;;;;;28.96;34.92;98525.25;5022308;28;20033;-62
2021/06/24 09:43:42;;;;;;;6.10;2.28;;;;;;;29.11;34.74;98522.56;5021642;28;20021;-63
2021/06/24 09:46:16;;;;;;;6.15;2.30;;;;;;;28.83;34.61;98515.91;5018964;28;20052;-63
2021/06/24 09:49:00;;;;;;;7.85;2.50;;;;;;;28.85;34.99;98521.78;5022385;28;20029;-63
2021/06/24 09:51:33;;;;;;;7.10;2.33;;;;;;;28.75;34.55;98498.50;5021579;28;20040;-63
2021/06/24 09:54:13;;;;;;;6.63;2.10;;;;;;;28.75;34.08;98487.81;5017624;28;20029;-64
2021/06/24 09:56:43;;;;;;;;;;;;;;;28.66;34.94;98520.69;5021921;28;20026;-62
2021/06/24 09:59:09;;;;;;;6.75;2.50;;;;;;;28.82;34.94;98502.78;5021904;28;19920;-63
2021/06/24 10:01:42;;;;;;;7.60;2.58;;;;;;;28.88;35.04;98521.25;5018692;28;20033;-63
2021/06/24 10:04:27;;;;;;;7.07;2.47;;;;;;;28.54;34.84;98519.06;5031871;28;20121;-63
2021/06/24 10:06:55;;;;;;;5.18;2.20;;;;;;;28.37;35.57;98515.78;5014797;28;20502;-62
2021/06/24 10:09:22;;;;;;;8.70;2.50;;;;;;;28.29;35.15;98513.63;5016449;28;20033;-62
2021/06/24 10:11:48;;;;;;;5.15;2.28;;;;;;;28.14;35.51;98522.41;5007693;28;20476;-63
2021/06/24 10:14:18;;;;;;;7.47;2.25;;;;;;;27.96;35.14;98505.75;5010303;28;20063;-63
2021/06/24 10:16:44;;;;;;;6.22;2.40;;;;;;;27.70;36.36;98517.34;5033198;28;20443;-63
2021/06/24 10:19:10;;;;;;;7.95;2.28;;;;;;;27.40;35.80;98508.09;5029353;28;20029;-63
2021/06/24 10:21:37;;;;;;;6.57;2.40;;;;;;;27.34;35.88;98512.59;5035577;28;20044;-63
2021/06/24 10:24:13;;;;;;;6.60;2.28;;;;;;;27.46;35.51;98507.06;5017660;28;20916;-63
2021/06/24 10:26:40;;;;;;;7.32;2.30;;;;;;;27.18;35.87;98486.81;5027243;28;20513;-63
2021/06/24 10:29:21;;;;;;;5.53;2.33;;;;;;;27.27;36.09;98512.03;5009929;28;20075;-64
2021/06/24 10:31:48;;;;;;;7.75;2.90;;;;;;;27.11;36.10;98512.94;5026760;28;20527;-63
2021/06/24 10:34:15;;;;;;;6.43;2.67;;;;;;;26.87;36.99;98499.94;5013603;28;20037;-63
2021/06/24 10:37:13;;;;;;;6.30;2.60;;;;;;;27.28;33.89;98507.47;4999794;28;20095;-63
2021/06/24 10:39:40;;;;;;;7.32;2.60;;;;;;;27.16;35.81;98508.44;5014856;28;20034;-63
2021/06/24 10:42:09;;;;;;;7.35;2.67;;;;;;;26.99;36.17;98497.09;5014055;28;20529;-63
2021/06/24 10:44:57;;;;;;;5.97;1.98;;;;;;;27.09;32.88;98469.69;5017597;28;20088;-63
2021/06/24 10:47:29;;;;;;;5.95;2.40;;;;;;;27.06;34.49;98499.56;5017392;28;20132;-63
2021/06/24 10:50:27;;;;;;;5.95;2.53;;;;;;;26.90;35.91;98496.75;5027105;28;20679;-63
2021/06/24 10:52:53;;;;;;;5.45;2.72;;;;;;;27.12;36.17;98498.53;5013557;28;20652;-63
2021/06/24 10:55:47;;;;;;;7.22;2.50;;;;;;;27.12;35.04;98496.66;5022017;28;20030;-63
2021/06/24 10:58:12;;;;;;;8.25;2.80;;;;;;;27.23;35.56;98494.88;5011096;28;20041;-63
2021/06/24 11:00:48;;;;;;;6.55;2.60;;;;;;;27.21;35.19;98480.97;5008029;28;20502;-63
2021/06/24 11:03:37;;;;;;;7.70;2.75;;;;;;;27.16;35.22;98487.09;5007853;28;20040;-62
2021/06/24 11:06:13;;;;;;;6.22;2.55;;;;;;;27.05;35.85;98498.72;5019070;28;20048;-63
2021/06/24 11:08:40;;;;;;;7.47;2.30;;;;;;;27.00;34.72;98496.84;5028631;28;20112;-63
2021/06/24 11:11:38;;;;;;;7.38;2.30;;;;;;;27.01;34.00;98498.44;5014586;28;20029;-63
2021/06/24 11:14:04;;;;;;;7.45;2.35;;;;;;;26.73;33.97;98453.41;5017850;28;20535;-63
2021/06/24 11:16:29;;;;;;;6.25;2.67;;;;;;;26.94;34.65;98491.72;4999908;28;20037;-63
2021/06/24 11:19:04;;;;;;;7.25;2.60;;;;;;;27.14;34.66;98488.41;5013364;28;20029;-63
2021/06/24 11:21:30;;;;;;;7.65;2.70;;;;;;;27.34;34.51;98491.22;5011460;28;20029;-63
2021/06/24 11:24:19;;;;;;;8.85;2.92;;;;;;;27.32;34.91;98488.00;5016020;28;20607;-63
2021/06/24 11:26:46;;;;;;;9.45;3.13;;;;;;;27.38;33.70;98492.34;5018131;28;20139;-63
2021/06/24 11:32:10;;;;;;;7.50;3.03;;;;;;;27.35;33.42;98481.38;5009373;28;20043;-63
2021/06/24 11:35:02;;;;;;;5.95;2.63;;;;;;;27.17;33.25;98483.34;5012956;28;20028;-65
2021/06/24 11:37:32;;;;;;;5.90;2.80;;;;;;;27.23;33.27;98471.66;5026186;28;20399;-61
2021/06/24 11:40:03;;;;;;;8.00;3.00;;;;;;;27.25;34.01;98474.06;5021739;28;20033;-64